sensor_id;sensor_type;location;lat;lon;timestamp;pressure;altitude;pressure_sealevel;temperature;humidity
22964;BME280;11648;49.306;6.934;2023-05-20T00:02:02;98647.25;;;18.38;43.70
22964;BME280;11648;49.306;6.934;2023-05-20T00:04:29;98641.75;;;18.42;43.37
22964;BME280;11648;49.306;6.934;2023-05-20T00:06:56;98638.09;;;18.45;43.55
22964;BME280;11648;49.306;6.934;2023-05-20T00:09:22;98633.34;;;18.53;43.38
22964;BME280;11648;49.306;6.934;2023-05-20T00:11:49;98636.41;;;18.42;43.61
22964;BME280;11648;49.306;6.934;2023-05-20T00:14:16;98636.69;;;18.13;43.82
22964;BME280;11648;49.306;6.934;2023-05-20T00:16:43;98639.22;;;18.16;44.00
22964;BME280;11648;49.306;6.934;2023-05-20T00:19:09;98641.50;;;18.25;44.14
22964;BME280;11648;49.306;6.934;2023-05-20T00:21:36;98638.34;;;18.15;44.17
22964;BME280;11648;49.306;6.934;2023-05-20T00:24:03;98631.19;;;18.17;43.89
22964;BME280;11648;49.306;6.934;2023-05-20T00:26:30;98633.53;;;18.25;44.42
22964;BME280;11648;49.306;6.934;2023-05-20T00:28:57;98633.91;;;18.16;44.34
22964;BME280;11648;49.306;6.934;2023-05-20T00:31:24;98628.88;;;18.30;44.52
22964;BME280;11648;49.306;6.934;2023-05-20T00:33:51;98633.78;;;18.19;44.30
22964;BME280;11648;49.306;6.934;2023-05-20T00:36:18;98632.97;;;18.17;44.52
22964;BME280;11648;49.306;6.934;2023-05-20T00:38:44;98632.47;;;18.29;44.35
22964;BME280;11648;49.306;6.934;2023-05-20T00:41:11;98622.41;;;18.37;44.52
22964;BME280;11648;49.306;6.934;2023-05-20T00:43:38;98616.13;;;18.38;44.12
22964;BME280;11648;49.306;6.934;2023-05-20T00:46:04;98620.91;;;18.30;44.35
22964;BME280;11648;49.306;6.934;2023-05-20T00:48:43;98626.66;;;18.19;44.37
22964;BME280;11648;49.306;6.934;2023-05-20T00:51:11;98627.59;;;17.95;45.11
22964;BME280;11648;49.306;6.934;2023-05-20T00:53:39;98628.28;;;18.00;45.14
22964;BME280;11648;49.306;6.934;2023-05-20T00:56:07;98622.84;;;17.80;45.59
22964;BME280;11648;49.306;6.934;2023-05-20T00:58:35;98626.28;;;17.82;45.43
22964;BME280;11648;49.306;6.934;2023-05-20T01:01:04;98618.78;;;17.93;45.60
22964;BME280;11648;49.306;6.934;2023-05-20T01:03:31;98625.84;;;17.94;45.25
22964;BME280;11648;49.306;6.934;2023-05-20T01:05:59;98609.56;;;18.02;45.47
22964;BME280;11648;49.306;6.934;2023-05-20T01:08:26;98619.78;;;17.91;45.51
22964;BME280;11648;49.306;6.934;2023-05-20T01:11:07;98626.59;;;17.98;45.39
22964;BME280;11648;49.306;6.934;2023-05-20T01:13:49;98627.47;;;17.98;45.69
22964;BME280;11648;49.306;6.934;2023-05-20T01:16:19;98626.44;;;18.02;45.60
22964;BME280;11648;49.306;6.934;2023-05-20T01:18:50;98616.00;;;17.96;45.91
22964;BME280;11648;49.306;6.934;2023-05-20T01:21:20;98625.91;;;17.93;46.04
22964;BME280;11648;49.306;6.934;2023-05-20T01:23:48;98619.53;;;17.97;46.26
22964;BME280;11648;49.306;6.934;2023-05-20T01:26:14;98620.53;;;17.94;45.88
22964;BME280;11648;49.306;6.934;2023-05-20T01:28:44;98631.00;;;17.99;45.81
22964;BME280;11648;49.306;6.934;2023-05-20T01:31:19;98619.59;;;17.95;46.49
22964;BME280;11648;49.306;6.934;2023-05-20T01:33:50;98616.34;;;17.87;46.13
22964;BME280;11648;49.306;6.934;2023-05-20T01:36:18;98615.66;;;17.82;46.36
22964;BME280;11648;49.306;6.934;2023-05-20T01:38:48;98615.47;;;17.87;46.56
22964;BME280;11648;49.306;6.934;2023-05-20T01:41:16;98613.66;;;17.89;46.86
22964;BME280;11648;49.306;6.934;2023-05-20T01:43:44;98617.34;;;17.85;46.33
22964;BME280;11648;49.306;6.934;2023-05-20T01:46:11;98608.59;;;17.81;46.56
22964;BME280;11648;49.306;6.934;2023-05-20T01:48:37;98605.75;;;17.86;46.67
22964;BME280;11648;49.306;6.934;2023-05-20T01:51:04;98603.66;;;17.94;46.66
22964;BME280;11648;49.306;6.934;2023-05-20T01:53:31;98610.50;;;17.77;46.58
22964;BME280;11648;49.306;6.934;2023-05-20T01:55:58;98599.00;;;17.77;47.00
22964;BME280;11648;49.306;6.934;2023-05-20T01:58:25;98601.38;;;17.85;46.74
22964;BME280;11648;49.306;6.934;2023-05-20T02:00:52;98602.31;;;17.82;47.13
22964;BME280;11648;49.306;6.934;2023-05-20T02:03:19;98605.06;;;17.81;46.85
22964;BME280;11648;49.306;6.934;2023-05-20T02:05:45;98607.63;;;17.84;46.95
22964;BME280;11648;49.306;6.934;2023-05-20T02:08:12;98594.69;;;17.96;46.99
22964;BME280;11648;49.306;6.934;2023-05-20T02:10:39;98599.91;;;17.99;47.26
22964;BME280;11648;49.306;6.934;2023-05-20T02:13:05;98599.78;;;18.02;47.33
22964;BME280;11648;49.306;6.934;2023-05-20T02:15:33;98602.66;;;17.96;47.32
22964;BME280;11648;49.306;6.934;2023-05-20T02:18:00;98598.00;;;17.80;47.52
22964;BME280;11648;49.306;6.934;2023-05-20T02:20:28;98593.31;;;17.86;47.23
22964;BME280;11648;49.306;6.934;2023-05-20T02:22:54;98597.00;;;17.82;47.77
22964;BME280;11648;49.306;6.934;2023-05-20T02:25:21;98594.81;;;17.70;47.86
22964;BME280;11648;49.306;6.934;2023-05-20T02:27:48;98598.28;;;17.72;47.82
22964;BME280;11648;49.306;6.934;2023-05-20T02:30:15;98600.94;;;17.72;47.92
22964;BME280;11648;49.306;6.934;2023-05-20T02:32:42;98602.44;;;17.79;47.99
22964;BME280;11648;49.306;6.934;2023-05-20T02:35:10;98591.03;;;17.75;47.98
22964;BME280;11648;49.306;6.934;2023-05-20T02:37:37;98600.94;;;17.72;48.00
22964;BME280;11648;49.306;6.934;2023-05-20T02:40:05;98602.94;;;17.67;48.07
22964;BME280;11648;49.306;6.934;2023-05-20T02:42:32;98601.53;;;17.55;48.81
22964;BME280;11648;49.306;6.934;2023-05-20T02:44:59;98606.66;;;17.61;48.16
22964;BME280;11648;49.306;6.934;2023-05-20T02:47:26;98600.81;;;17.50;48.60
22964;BME280;11648;49.306;6.934;2023-05-20T02:49:53;98598.06;;;17.53;48.25
22964;BME280;11648;49.306;6.934;2023-05-20T02:52:20;98601.66;;;17.52;48.93
22964;BME280;11648;49.306;6.934;2023-05-20T02:54:47;98603.22;;;17.59;48.46
22964;BME280;11648;49.306;6.934;2023-05-20T02:57:14;98593.69;;;17.52;48.81
22964;BME280;11648;49.306;6.934;2023-05-20T02:59:41;98594.44;;;17.56;49.06
22964;BME280;11648;49.306;6.934;2023-05-20T03:02:08;98590.13;;;17.52;48.98
22964;BME280;11648;49.306;6.934;2023-05-20T03:04:35;98595.91;;;17.40;49.30
22964;BME280;11648;49.306;6.934;2023-05-20T03:07:07;98589.81;;;17.36;49.78
22964;BME280;11648;49.306;6.934;2023-05-20T03:09:34;98597.56;;;17.42;49.17
22964;BME280;11648;49.306;6.934;2023-05-20T03:12:01;98594.44;;;17.31;49.74
22964;BME280;11648;49.306;6.934;2023-05-20T03:14:29;98597.13;;;17.31;50.03
22964;BME280;11648;49.306;6.934;2023-05-20T03:16:56;98595.75;;;17.19;49.98
22964;BME280;11648;49.306;6.934;2023-05-20T03:19:23;98603.88;;;17.15;50.63
22964;BME280;11648;49.306;6.934;2023-05-20T03:21:50;98597.69;;;17.14;50.40
22964;BME280;11648;49.306;6.934;2023-05-20T03:24:16;98597.03;;;17.08;50.77
22964;BME280;11648;49.306;6.934;2023-05-20T03:26:45;98609.69;;;17.01;50.67
22964;BME280;11648;49.306;6.934;2023-05-20T03:29:12;98602.84;;;16.94;50.79
22964;BME280;11648;49.306;6.934;2023-05-20T03:31:39;98608.19;;;16.93;51.17
22964;BME280;11648;49.306;6.934;2023-05-20T03:34:06;98604.88;;;16.60;52.23
22964;BME280;11648;49.306;6.934;2023-05-20T03:36:34;98607.13;;;16.72;52.16
22964;BME280;11648;49.306;6.934;2023-05-20T03:39:01;98603.56;;;16.73;51.69
22964;BME280;11648;49.306;6.934;2023-05-20T03:41:31;98600.03;;;16.72;51.98
22964;BME280;11648;49.306;6.934;2023-05-20T03:43:57;98604.59;;;16.69;53.11
22964;BME280;11648;49.306;6.934;2023-05-20T03:46:25;98606.63;;;16.61;52.92
22964;BME280;11648;49.306;6.934;2023-05-20T03:48:52;98603.59;;;16.71;52.56
22964;BME280;11648;49.306;6.934;2023-05-20T03:51:19;98602.69;;;16.72;52.79
22964;BME280;11648;49.306;6.934;2023-05-20T03:53:49;98603.72;;;16.68;52.87
22964;BME280;11648;49.306;6.934;2023-05-20T03:56:15;98605.13;;;16.52;52.81
22964;BME280;11648;49.306;6.934;2023-05-20T03:58:42;98606.13;;;16.48;53.69
22964;BME280;11648;49.306;6.934;2023-05-20T04:01:09;98602.75;;;16.43;54.01
22964;BME280;11648;49.306;6.934;2023-05-20T04:03:39;98599.94;;;16.48;53.50
22964;BME280;11648;49.306;6.934;2023-05-20T04:06:07;98599.34;;;16.38;54.01
22964;BME280;11648;49.306;6.934;2023-05-20T04:08:34;98599.81;;;16.52;54.34
22964;BME280;11648;49.306;6.934;2023-05-20T04:11:02;98591.84;;;16.52;53.31
22964;BME280;11648;49.306;6.934;2023-05-20T04:13:29;98599.22;;;16.43;53.87
22964;BME280;11648;49.306;6.934;2023-05-20T04:15:56;98593.31;;;16.33;54.00
22964;BME280;11648;49.306;6.934;2023-05-20T04:18:23;98592.06;;;16.45;54.38
22964;BME280;11648;49.306;6.934;2023-05-20T04:20:54;98590.19;;;16.48;54.22
22964;BME280;11648;49.306;6.934;2023-05-20T04:23:22;98591.91;;;16.49;54.27
22964;BME280;11648;49.306;6.934;2023-05-20T04:25:49;98588.66;;;16.41;54.81
22964;BME280;11648;49.306;6.934;2023-05-20T04:28:16;98589.41;;;16.45;53.94
22964;BME280;11648;49.306;6.934;2023-05-20T04:30:43;98589.09;;;16.54;54.24
22964;BME280;11648;49.306;6.934;2023-05-20T04:33:11;98579.94;;;16.64;54.51
22964;BME280;11648;49.306;6.934;2023-05-20T04:35:39;98582.66;;;16.62;54.47
22964;BME280;11648;49.306;6.934;2023-05-20T04:38:08;98582.59;;;16.64;54.66
22964;BME280;11648;49.306;6.934;2023-05-20T04:40:35;98580.78;;;16.66;54.93
22964;BME280;11648;49.306;6.934;2023-05-20T04:43:01;98579.16;;;16.60;54.77
22964;BME280;11648;49.306;6.934;2023-05-20T04:45:29;98580.09;;;16.59;55.08
22964;BME280;11648;49.306;6.934;2023-05-20T04:47:57;98582.66;;;16.62;54.60
22964;BME280;11648;49.306;6.934;2023-05-20T04:50:24;98573.56;;;16.69;54.82
22964;BME280;11648;49.306;6.934;2023-05-20T04:52:50;98582.69;;;16.87;54.77
22964;BME280;11648;49.306;6.934;2023-05-20T04:55:17;98574.47;;;16.95;53.96
22964;BME280;11648;49.306;6.934;2023-05-20T04:57:45;98574.25;;;17.01;53.92
22964;BME280;11648;49.306;6.934;2023-05-20T05:00:12;98575.16;;;17.00;53.74
22964;BME280;11648;49.306;6.934;2023-05-20T05:02:39;98572.06;;;17.12;53.73
22964;BME280;11648;49.306;6.934;2023-05-20T05:05:07;98568.91;;;17.25;53.22
22964;BME280;11648;49.306;6.934;2023-05-20T05:07:34;98578.50;;;17.31;53.31
22964;BME280;11648;49.306;6.934;2023-05-20T05:10:01;98572.22;;;17.32;53.20
22964;BME280;11648;49.306;6.934;2023-05-20T05:12:32;98576.47;;;17.38;53.78
22964;BME280;11648;49.306;6.934;2023-05-20T05:14:59;98574.09;;;17.30;53.63
22964;BME280;11648;49.306;6.934;2023-05-20T05:17:27;98578.50;;;17.31;53.38
22964;BME280;11648;49.306;6.934;2023-05-20T05:19:55;98579.28;;;17.33;53.40
22964;BME280;11648;49.306;6.934;2023-05-20T05:22:23;98577.91;;;17.46;53.11
22964;BME280;11648;49.306;6.934;2023-05-20T05:24:50;98564.78;;;17.42;53.02
22964;BME280;11648;49.306;6.934;2023-05-20T05:27:17;98562.00;;;17.45;53.14
22964;BME280;11648;49.306;6.934;2023-05-20T05:29:44;98556.91;;;17.39;53.20
22964;BME280;11648;49.306;6.934;2023-05-20T05:32:11;98557.19;;;17.31;53.36
22964;BME280;11648;49.306;6.934;2023-05-20T05:34:38;98545.44;;;17.61;53.39
22964;BME280;11648;49.306;6.934;2023-05-20T05:37:04;98555.19;;;17.38;53.09
22964;BME280;11648;49.306;6.934;2023-05-20T05:39:32;98549.34;;;17.51;52.79
22964;BME280;11648;49.306;6.934;2023-05-20T05:42:00;98555.47;;;17.30;53.06
22964;BME280;11648;49.306;6.934;2023-05-20T05:44:27;98555.19;;;17.38;53.06
22964;BME280;11648;49.306;6.934;2023-05-20T05:46:53;98553.19;;;17.43;52.96
22964;BME280;11648;49.306;6.934;2023-05-20T05:49:20;98554.91;;;17.45;52.84
22964;BME280;11648;49.306;6.934;2023-05-20T05:51:49;98554.47;;;17.57;52.82
22964;BME280;11648;49.306;6.934;2023-05-20T05:54:16;98548.97;;;17.85;52.89
22964;BME280;11648;49.306;6.934;2023-05-20T05:56:44;98549.53;;;17.93;52.11
22964;BME280;11648;49.306;6.934;2023-05-20T05:59:11;98553.91;;;18.17;51.96
22964;BME280;11648;49.306;6.934;2023-05-20T06:01:39;98548.53;;;18.39;51.90
22964;BME280;11648;49.306;6.934;2023-05-20T06:04:06;98545.78;;;18.64;50.80
22964;BME280;11648;49.306;6.934;2023-05-20T06:06:33;98539.16;;;18.94;50.09
22964;BME280;11648;49.306;6.934;2023-05-20T06:09:00;98538.16;;;19.17;49.89
22964;BME280;11648;49.306;6.934;2023-05-20T06:11:27;98529.88;;;19.43;48.85
22964;BME280;11648;49.306;6.934;2023-05-20T06:13:54;98528.66;;;19.50;48.68
22964;BME280;11648;49.306;6.934;2023-05-20T06:16:21;98529.31;;;19.55;48.18
22964;BME280;11648;49.306;6.934;2023-05-20T06:18:50;98525.06;;;19.70;48.46
22964;BME280;11648;49.306;6.934;2023-05-20T06:21:17;98527.22;;;19.62;48.93
22964;BME280;11648;49.306;6.934;2023-05-20T06:23:44;98528.03;;;19.64;48.32
22964;BME280;11648;49.306;6.934;2023-05-20T06:26:12;98518.69;;;19.72;48.61
22964;BME280;11648;49.306;6.934;2023-05-20T06:28:38;98512.31;;;20.12;48.54
22964;BME280;11648;49.306;6.934;2023-05-20T06:31:06;98506.72;;;20.18;48.18
22964;BME280;11648;49.306;6.934;2023-05-20T06:33:34;98505.47;;;20.26;47.58
22964;BME280;11648;49.306;6.934;2023-05-20T06:36:06;98489.16;;;20.13;48.01
22964;BME280;11648;49.306;6.934;2023-05-20T06:38:33;98497.13;;;20.50;47.42
22964;BME280;11648;49.306;6.934;2023-05-20T06:41:00;98495.22;;;20.35;47.50
22964;BME280;11648;49.306;6.934;2023-05-20T06:43:28;98489.78;;;20.37;48.00
22964;BME280;11648;49.306;6.934;2023-05-20T06:46:09;98488.00;;;20.89;47.01
22964;BME280;11648;49.306;6.934;2023-05-20T06:48:58;98486.56;;;21.33;45.89
22964;BME280;11648;49.306;6.934;2023-05-20T06:51:26;98472.47;;;21.45;46.00
22964;BME280;11648;49.306;6.934;2023-05-20T06:53:54;98470.97;;;21.24;45.63
22964;BME280;11648;49.306;6.934;2023-05-20T06:56:21;98472.53;;;21.28;46.64
22964;BME280;11648;49.306;6.934;2023-05-20T06:58:48;98472.00;;;21.54;45.46
22964;BME280;11648;49.306;6.934;2023-05-20T07:01:15;98472.09;;;21.68;45.44
22964;BME280;11648;49.306;6.934;2023-05-20T07:03:44;98471.66;;;21.60;45.74
22964;BME280;11648;49.306;6.934;2023-05-20T07:06:11;98473.13;;;21.82;45.20
22964;BME280;11648;49.306;6.934;2023-05-20T07:08:38;98475.00;;;21.97;45.20
22964;BME280;11648;49.306;6.934;2023-05-20T07:11:05;98467.72;;;22.14;44.94
22964;BME280;11648;49.306;6.934;2023-05-20T07:13:32;98468.06;;;22.08;45.06
22964;BME280;11648;49.306;6.934;2023-05-20T07:15:59;98470.09;;;21.88;45.28
22964;BME280;11648;49.306;6.934;2023-05-20T07:18:26;98463.34;;;21.81;46.21
22964;BME280;11648;49.306;6.934;2023-05-20T07:20:55;98469.91;;;21.59;46.03
22964;BME280;11648;49.306;6.934;2023-05-20T07:23:34;98461.28;;;21.54;47.08
22964;BME280;11648;49.306;6.934;2023-05-20T07:26:01;98467.28;;;21.42;47.00
22964;BME280;11648;49.306;6.934;2023-05-20T07:28:28;98474.56;;;21.40;47.19
22964;BME280;11648;49.306;6.934;2023-05-20T07:30:55;98476.56;;;21.52;47.01
22964;BME280;11648;49.306;6.934;2023-05-20T07:33:28;98473.53;;;21.43;46.96
22964;BME280;11648;49.306;6.934;2023-05-20T07:35:55;98481.31;;;21.63;47.46
22964;BME280;11648;49.306;6.934;2023-05-20T07:38:22;98472.16;;;21.51;47.39
22964;BME280;11648;49.306;6.934;2023-05-20T07:40:55;98488.13;;;21.53;46.98
22964;BME280;11648;49.306;6.934;2023-05-20T07:43:23;98484.97;;;21.78;47.04
22964;BME280;11648;49.306;6.934;2023-05-20T07:45:49;98471.75;;;21.75;46.89
22964;BME280;11648;49.306;6.934;2023-05-20T07:48:16;98482.97;;;21.81;46.52
22964;BME280;11648;49.306;6.934;2023-05-20T07:50:43;98476.25;;;21.41;47.18
22964;BME280;11648;49.306;6.934;2023-05-20T07:53:10;98478.66;;;21.30;47.42
22964;BME280;11648;49.306;6.934;2023-05-20T07:55:37;98482.78;;;21.20;47.24
22964;BME280;11648;49.306;6.934;2023-05-20T07:58:05;98478.34;;;21.36;46.84
22964;BME280;11648;49.306;6.934;2023-05-20T08:00:34;98470.09;;;21.56;46.96
22964;BME280;11648;49.306;6.934;2023-05-20T08:03:04;98467.81;;;21.49;47.11
22964;BME280;11648;49.306;6.934;2023-05-20T08:05:53;98464.66;;;21.89;46.55
22964;BME280;11648;49.306;6.934;2023-05-20T08:08:20;98462.97;;;22.20;45.78
22964;BME280;11648;49.306;6.934;2023-05-20T08:10:52;98448.22;;;22.72;44.47
22964;BME280;11648;49.306;6.934;2023-05-20T08:13:22;98449.41;;;22.96;44.16
22964;BME280;11648;49.306;6.934;2023-05-20T08:15:52;98451.84;;;23.15;44.51
22964;BME280;11648;49.306;6.934;2023-05-20T08:18:19;98450.25;;;23.55;43.92
22964;BME280;11648;49.306;6.934;2023-05-20T08:20:46;98446.06;;;23.92;42.73
22964;BME280;11648;49.306;6.934;2023-05-20T08:23:13;98428.03;;;24.99;41.18
22964;BME280;11648;49.306;6.934;2023-05-20T08:25:40;98415.00;;;25.93;38.99
22964;BME280;11648;49.306;6.934;2023-05-20T08:28:08;98412.09;;;26.43;37.94
22964;BME280;11648;49.306;6.934;2023-05-20T08:30:36;98410.78;;;26.13;38.13
22964;BME280;11648;49.306;6.934;2023-05-20T08:33:03;98412.53;;;26.37;38.32
22964;BME280;11648;49.306;6.934;2023-05-20T08:35:30;98424.13;;;25.67;38.72
22964;BME280;11648;49.306;6.934;2023-05-20T08:37:57;98418.75;;;25.16;40.17
22964;BME280;11648;49.306;6.934;2023-05-20T08:40:25;98426.97;;;24.23;41.39
22964;BME280;11648;49.306;6.934;2023-05-20T08:42:52;98433.53;;;24.05;43.16
22964;BME280;11648;49.306;6.934;2023-05-20T08:45:20;98432.84;;;24.82;41.34
22964;BME280;11648;49.306;6.934;2023-05-20T08:47:58;98436.53;;;24.54;41.93
22964;BME280;11648;49.306;6.934;2023-05-20T08:50:26;98438.47;;;24.25;41.57
22964;BME280;11648;49.306;6.934;2023-05-20T08:52:53;98441.81;;;23.47;43.60
22964;BME280;11648;49.306;6.934;2023-05-20T08:55:41;98445.13;;;23.08;44.05
22964;BME280;11648;49.306;6.934;2023-05-20T08:58:09;98458.47;;;22.50;45.40
22964;BME280;11648;49.306;6.934;2023-05-20T09:00:36;98449.53;;;22.95;45.38
22964;BME280;11648;49.306;6.934;2023-05-20T09:03:03;98444.09;;;23.53;45.06
22964;BME280;11648;49.306;6.934;2023-05-20T09:05:30;98439.06;;;24.30;42.54
22964;BME280;11648;49.306;6.934;2023-05-20T09:08:09;98428.66;;;25.66;40.26
22964;BME280;11648;49.306;6.934;2023-05-20T09:10:37;98408.06;;;26.84;37.77
22964;BME280;11648;49.306;6.934;2023-05-20T09:13:05;98400.78;;;27.64;37.29
22964;BME280;11648;49.306;6.934;2023-05-20T09:15:33;98412.19;;;27.34;35.85
22964;BME280;11648;49.306;6.934;2023-05-20T09:18:03;98404.09;;;27.67;36.43
22964;BME280;11648;49.306;6.934;2023-05-20T09:20:32;98391.38;;;28.01;35.43
22964;BME280;11648;49.306;6.934;2023-05-20T09:23:00;98383.47;;;29.14;34.44
22964;BME280;11648;49.306;6.934;2023-05-20T09:25:27;98379.16;;;29.02;34.08
22964;BME280;11648;49.306;6.934;2023-05-20T09:27:58;98385.31;;;30.05;33.22
22964;BME280;11648;49.306;6.934;2023-05-20T09:30:24;98375.91;;;30.85;32.19
22964;BME280;11648;49.306;6.934;2023-05-20T09:32:56;98361.91;;;31.73;30.20
22964;BME280;11648;49.306;6.934;2023-05-20T09:35:25;98348.75;;;31.96;29.37
22964;BME280;11648;49.306;6.934;2023-05-20T09:37:56;98366.47;;;30.99;30.51
22964;BME280;11648;49.306;6.934;2023-05-20T09:40:27;98361.16;;;31.07;30.47
22964;BME280;11648;49.306;6.934;2023-05-20T09:43:06;98354.84;;;31.80;30.26
22964;BME280;11648;49.306;6.934;2023-05-20T09:45:33;98351.97;;;32.45;29.08
22964;BME280;11648;49.306;6.934;2023-05-20T09:48:01;98350.28;;;33.31;27.90
22964;BME280;11648;49.306;6.934;2023-05-20T09:50:29;98341.03;;;32.98;28.28
22964;BME280;11648;49.306;6.934;2023-05-20T09:53:02;98350.03;;;32.98;28.38
22964;BME280;11648;49.306;6.934;2023-05-20T09:55:29;98350.13;;;32.63;28.40
22964;BME280;11648;49.306;6.934;2023-05-20T09:57:57;98339.25;;;33.40;27.77
22964;BME280;11648;49.306;6.934;2023-05-20T10:00:24;98342.72;;;32.38;28.28
22964;BME280;11648;49.306;6.934;2023-05-20T10:02:51;98339.34;;;33.22;28.21
22964;BME280;11648;49.306;6.934;2023-05-20T10:05:21;98333.63;;;32.64;28.87
22964;BME280;11648;49.306;6.934;2023-05-20T10:08:52;98345.28;;;32.39;29.11
22964;BME280;11648;49.306;6.934;2023-05-20T10:14:16;98360.22;;;31.90;30.24
22964;BME280;11648;49.306;6.934;2023-05-20T10:19:32;98350.97;;;32.46;28.59
22964;BME280;11648;49.306;6.934;2023-05-20T10:22:00;98335.06;;;32.41;28.48
22964;BME280;11648;49.306;6.934;2023-05-20T10:24:34;98331.59;;;31.22;30.49
22964;BME280;11648;49.306;6.934;2023-05-20T10:27:04;98328.13;;;31.66;30.19
22964;BME280;11648;49.306;6.934;2023-05-20T10:29:53;98336.03;;;32.67;28.90
22964;BME280;11648;49.306;6.934;2023-05-20T10:32:27;98327.19;;;32.56;29.08
22964;BME280;11648;49.306;6.934;2023-05-20T10:35:02;98321.38;;;32.15;29.41
22964;BME280;11648;49.306;6.934;2023-05-20T10:37:33;98334.09;;;31.97;29.84
22964;BME280;11648;49.306;6.934;2023-05-20T10:40:07;98339.16;;;30.81;31.21
22964;BME280;11648;49.306;6.934;2023-05-20T10:42:34;98348.22;;;28.84;33.53
22964;BME280;11648;49.306;6.934;2023-05-20T10:45:01;98363.22;;;29.79;33.44
22964;BME280;11648;49.306;6.934;2023-05-20T10:47:30;98337.16;;;31.30;31.18
22964;BME280;11648;49.306;6.934;2023-05-20T10:49:57;98324.09;;;32.15;29.31
22964;BME280;11648;49.306;6.934;2023-05-20T10:52:24;98342.59;;;30.74;31.13
22964;BME280;11648;49.306;6.934;2023-05-20T10:54:58;98354.88;;;29.61;32.98
22964;BME280;11648;49.306;6.934;2023-05-20T10:57:27;98354.69;;;28.72;33.89
22964;BME280;11648;49.306;6.934;2023-05-20T10:59:55;98354.34;;;27.59;36.33
22964;BME280;11648;49.306;6.934;2023-05-20T11:02:22;98351.75;;;28.64;35.04
22964;BME280;11648;49.306;6.934;2023-05-20T11:04:55;98345.97;;;29.40;33.99
22964;BME280;11648;49.306;6.934;2023-05-20T11:09:56;98331.53;;;29.39;33.13
22964;BME280;11648;49.306;6.934;2023-05-20T11:12:24;98324.59;;;30.34;32.78
22964;BME280;11648;49.306;6.934;2023-05-20T11:14:52;98326.81;;;31.43;31.33
22964;BME280;11648;49.306;6.934;2023-05-20T11:17:19;98303.50;;;31.68;29.74
22964;BME280;11648;49.306;6.934;2023-05-20T11:19:47;98311.88;;;32.37;28.49
22964;BME280;11648;49.306;6.934;2023-05-20T11:22:14;98305.63;;;31.92;29.33
22964;BME280;11648;49.306;6.934;2023-05-20T11:24:41;98301.25;;;32.52;28.90
22964;BME280;11648;49.306;6.934;2023-05-20T11:27:07;98287.97;;;32.92;28.65
22964;BME280;11648;49.306;6.934;2023-05-20T11:29:35;98296.94;;;32.06;29.35
22964;BME280;11648;49.306;6.934;2023-05-20T11:32:01;98299.63;;;30.87;30.55
22964;BME280;11648;49.306;6.934;2023-05-20T11:34:34;98308.63;;;29.72;31.71
22964;BME280;11648;49.306;6.934;2023-05-20T11:37:06;98314.81;;;29.04;33.32
22964;BME280;11648;49.306;6.934;2023-05-20T11:39:33;98307.75;;;28.51;34.31
22964;BME280;11648;49.306;6.934;2023-05-20T11:42:00;98323.78;;;27.79;36.13
22964;BME280;11648;49.306;6.934;2023-05-20T11:44:26;98317.94;;;26.85;36.77
22964;BME280;11648;49.306;6.934;2023-05-20T11:46:59;98325.34;;;26.59;37.85
22964;BME280;11648;49.306;6.934;2023-05-20T11:49:26;98323.34;;;26.96;37.12
22964;BME280;11648;49.306;6.934;2023-05-20T11:51:53;98319.91;;;27.27;36.93
22964;BME280;11648;49.306;6.934;2023-05-20T11:54:21;98314.50;;;27.27;37.37
22964;BME280;11648;49.306;6.934;2023-05-20T11:56:48;98327.22;;;26.70;38.09
22964;BME280;11648;49.306;6.934;2023-05-20T11:59:15;98322.50;;;26.38;39.12
22964;BME280;11648;49.306;6.934;2023-05-20T12:01:42;98318.78;;;26.28;38.85
22964;BME280;11648;49.306;6.934;2023-05-20T12:04:09;98327.34;;;25.75;40.00
22964;BME280;11648;49.306;6.934;2023-05-20T12:06:36;98318.84;;;25.68;40.16
22964;BME280;11648;49.306;6.934;2023-05-20T12:09:05;98319.03;;;26.25;40.58
22964;BME280;11648;49.306;6.934;2023-05-20T12:11:33;98308.69;;;26.65;38.13
22964;BME280;11648;49.306;6.934;2023-05-20T12:14:04;98301.84;;;26.72;39.41
22964;BME280;11648;49.306;6.934;2023-05-20T12:16:32;98294.69;;;26.60;38.17
22964;BME280;11648;49.306;6.934;2023-05-20T12:18:59;98294.56;;;26.62;38.03
22964;BME280;11648;49.306;6.934;2023-05-20T12:21:30;98298.22;;;26.15;38.70
22964;BME280;11648;49.306;6.934;2023-05-20T12:24:00;98295.59;;;26.37;38.73
22964;BME280;11648;49.306;6.934;2023-05-20T12:26:27;98299.94;;;26.39;38.64
22964;BME280;11648;49.306;6.934;2023-05-20T12:28:55;98295.28;;;26.52;38.07
22964;BME280;11648;49.306;6.934;2023-05-20T12:31:22;98290.78;;;26.75;38.89
22964;BME280;11648;49.306;6.934;2023-05-20T12:33:49;98285.09;;;26.56;38.36
22964;BME280;11648;49.306;6.934;2023-05-20T12:36:16;98285.41;;;26.86;38.19
22964;BME280;11648;49.306;6.934;2023-05-20T12:38:43;98281.31;;;26.70;37.45
22964;BME280;11648;49.306;6.934;2023-05-20T12:41:09;98282.72;;;26.97;37.72
22964;BME280;11648;49.306;6.934;2023-05-20T12:43:36;98276.63;;;26.49;38.31
22964;BME280;11648;49.306;6.934;2023-05-20T12:46:03;98282.63;;;26.42;38.84
22964;BME280;11648;49.306;6.934;2023-05-20T12:48:31;98289.22;;;26.38;38.49
22964;BME280;11648;49.306;6.934;2023-05-20T12:50:58;98283.72;;;26.39;38.95
22964;BME280;11648;49.306;6.934;2023-05-20T12:53:25;98288.41;;;26.14;38.18
22964;BME280;11648;49.306;6.934;2023-05-20T12:55:52;98288.97;;;26.30;38.25
22964;BME280;11648;49.306;6.934;2023-05-20T12:58:19;98292.78;;;26.38;38.66
22964;BME280;11648;49.306;6.934;2023-05-20T13:00:46;98275.25;;;26.44;38.27
22964;BME280;11648;49.306;6.934;2023-05-20T13:03:12;98272.22;;;26.71;38.93
22964;BME280;11648;49.306;6.934;2023-05-20T13:05:40;98268.06;;;26.78;37.53
22964;BME280;11648;49.306;6.934;2023-05-20T13:08:06;98279.34;;;26.72;37.38
22964;BME280;11648;49.306;6.934;2023-05-20T13:10:35;98280.44;;;26.47;37.36
22964;BME280;11648;49.306;6.934;2023-05-20T13:13:03;98280.66;;;26.09;38.53
22964;BME280;11648;49.306;6.934;2023-05-20T13:15:29;98284.44;;;26.07;38.99